Time;durP1;ratioP1;P1;durP2;ratioP2;P2;SDS_P1;SDS_P2;PMS_P1;PMS_P2;Temp;Humidity;BMP_temperature;BMP_pressure;BME280_temperature;BME280_humidity;BME280_pressure;Samples;Min_cycle;Max_cycle;Signal;HPM_P1;HPM_P2
2023/09/25 00:00:30;;;;;;;;;;;12.80;99.90;;;;;;5057163;28;19908;-72
2023/09/25 00:02:55;;;;;;;;;;;12.70;99.90;;;;;;5058523;28;20008;-71
2023/09/25 00:05:21;;;;;;;;;;;12.70;99.90;;;;;;5057211;28;19940;-72
2023/09/25 00:07:46;;;;;;;;;;;12.70;99.90;;;;;;5058318;28;19912;-72
2023/09/25 00:10:12;;;;;;;;;;;12.60;99.90;;;;;;5058423;28;19917;-72
2023/09/25 00:12:38;;;;;;;;;;;12.60;99.90;;;;;;5058405;28;19966;-72
2023/09/25 00:15:05;;;;;;;;;;;12.60;99.90;;;;;;5058287;28;20010;-73
2023/09/25 00:17:30;;;;;;;;;;;12.60;99.90;;;;;;5058174;28;19916;-73
2023/09/25 00:19:56;;;;;;;;;;;12.50;99.90;;;;;;5073549;28;19917;-72
2023/09/25 00:22:21;;;;;;;;;;;12.50;99.90;;;;;;5057853;28;19909;-71
2023/09/25 00:24:47;;;;;;;;;;;12.50;99.90;;;;;;5057464;28;19909;-71
2023/09/25 00:27:13;;;;;;;;;;;12.50;99.90;;;;;;5057691;28;19924;-71
2023/09/25 00:29:38;;;;;;;;;;;12.50;99.90;;;;;;5057893;28;19952;-71
2023/09/25 00:32:04;;;;;;;;;;;12.40;99.90;;;;;;5057979;28;19912;-72
2023/09/25 00:34:31;;;;;;;;;;;12.40;99.90;;;;;;5058040;28;19916;-72
2023/09/25 00:36:57;;;;;;;;;;;12.40;99.90;;;;;;5057747;28;19920;-72
2023/09/25 00:39:22;;;;;;;;;;;12.40;99.90;;;;;;5057986;28;19909;-72
2023/09/25 00:41:48;;;;;;;;;;;12.30;99.90;;;;;;5057778;28;19920;-72
2023/09/25 00:44:14;;;;;;;;;;;12.30;99.90;;;;;;5057514;28;19919;-72
2023/09/25 00:46:39;;;;;;;;;;;12.30;99.90;;;;;;5057655;28;20018;-72
2023/09/25 00:49:05;;;;;;;;;;;12.30;99.90;;;;;;5057879;28;19913;-71
2023/09/25 00:51:30;;;;;;;;;;;12.30;99.90;;;;;;5089555;28;19912;-71
2023/09/25 00:53:56;;;;;;;;;;;12.30;99.90;;;;;;5057483;28;19943;-71
2023/09/25 00:56:22;;;;;;;;;;;12.30;99.90;;;;;;5057482;28;19908;-71
2023/09/25 00:58:48;;;;;;;;;;;12.30;99.90;;;;;;5057516;28;19909;-71
2023/09/25 01:01:13;;;;;;;;;;;12.30;99.90;;;;;;5057276;28;19956;-72
2023/09/25 01:03:40;;;;;;;;;;;12.30;99.90;;;;;;5057650;28;19913;-71
2023/09/25 01:06:05;;;;;;;;;;;12.20;99.90;;;;;;5057196;28;20735;-71
2023/09/25 01:08:31;;;;;;;;;;;12.20;99.90;;;;;;5057318;28;19944;-71
2023/09/25 01:10:58;;;;;;;;;;;12.10;99.90;;;;;;5057401;28;19913;-72
2023/09/25 01:13:23;;;;;;;;;;;12.10;99.90;;;;;;5057151;28;19974;-72
2023/09/25 01:15:49;;;;;;;;;;;12.10;99.90;;;;;;5055721;28;20369;-73
2023/09/25 01:18:14;;;;;;;;;;;12.10;99.90;;;;;;5057159;28;19912;-73
2023/09/25 01:20:40;;;;;;;;;;;12.00;99.90;;;;;;5056898;28;19944;-72
2023/09/25 01:23:06;;;;;;;;;;;12.10;99.90;;;;;;5057101;28;19917;-72
2023/09/25 01:25:31;;;;;;;;;;;12.00;99.90;;;;;;5056872;28;19912;-73
2023/09/25 01:27:57;;;;;;;;;;;12.00;99.90;;;;;;5056646;28;19920;-72
2023/09/25 01:30:23;;;;;;;;;;;12.00;99.90;;;;;;5088612;28;19920;-72
2023/09/25 01:32:52;;;;;;;;;;;12.00;99.90;;;;;;5056863;28;19909;-72
2023/09/25 01:35:18;;;;;;;;;;;11.90;99.90;;;;;;5054417;28;19909;-72
2023/09/25 01:37:45;;;;;;;;;;;11.90;99.90;;;;;;5056359;28;19909;-72
2023/09/25 01:40:12;;;;;;;;;;;12.00;99.90;;;;;;5056834;28;19913;-72
2023/09/25 01:42:39;;;;;;;;;;;12.00;99.90;;;;;;5056932;28;19927;-72
2023/09/25 01:45:05;;;;;;;;;;;12.00;99.90;;;;;;5055849;28;19909;-72
2023/09/25 01:47:30;;;;;;;;;;;12.00;99.90;;;;;;5056664;28;19962;-72
2023/09/25 01:49:56;;;;;;;;;;;12.00;99.90;;;;;;5056383;28;19928;-72
2023/09/25 01:52:21;;;;;;;;;;;12.00;99.90;;;;;;5056536;28;19920;-72
2023/09/25 01:54:47;;;;;;;;;;;11.90;99.90;;;;;;5056407;28;19924;-72
2023/09/25 01:57:13;;;;;;;;;;;11.90;99.90;;;;;;5056552;28;19916;-72
2023/09/25 01:59:38;;;;;;;;;;;11.90;99.90;;;;;;5056203;28;19916;-72
2023/09/25 02:02:04;;;;;;;;;;;11.80;99.90;;;;;;5056413;28;19919;-72
2023/09/25 02:04:29;;;;;;;;;;;11.80;99.90;;;;;;5056327;28;19945;-72
2023/09/25 02:06:55;;;;;;;;;;;11.80;99.90;;;;;;5054962;28;19916;-72
2023/09/25 02:09:20;;;;;;;;;;;11.70;99.90;;;;;;5056094;28;19928;-72
2023/09/25 02:11:46;;;;;;;;;;;11.70;99.90;;;;;;5056058;28;19916;-72
2023/09/25 02:14:11;;;;;;;;;;;11.70;99.90;;;;;;5054387;28;19917;-72
2023/09/25 02:16:37;;;;;;;;;;;11.60;99.90;;;;;;5056195;28;20000;-73
2023/09/25 02:19:03;;;;;;;;;;;11.60;99.90;;;;;;5056077;28;19917;-72
2023/09/25 02:21:29;;;;;;;;;;;11.60;99.90;;;;;;5056129;28;19915;-72
2023/09/25 02:23:54;;;;;;;;;;;11.60;99.90;;;;;;5056124;28;20003;-72
2023/09/25 02:26:20;;;;;;;;;;;11.60;99.90;;;;;;5054588;28;19965;-73
2023/09/25 02:28:45;;;;;;;;;;;11.60;99.90;;;;;;5055621;28;19909;-73
2023/09/25 02:31:13;;;;;;;;;;;11.60;99.90;;;;;;5056176;28;19909;-72
2023/09/25 02:33:39;;;;;;;;;;;11.60;99.90;;;;;;5055720;28;20367;-72
2023/09/25 02:36:11;;;;;;;;;;;11.60;99.90;;;;;;5055762;28;19913;-72
2023/09/25 02:38:37;;;;;;;;;;;11.60;99.90;;;;;;5055767;28;19920;-72
2023/09/25 02:41:02;;;;;;;;;;;11.50;99.90;;;;;;5055953;28;19940;-73
2023/09/25 02:43:28;;;;;;;;;;;11.50;99.90;;;;;;5055262;28;19947;-73
2023/09/25 02:45:54;;;;;;;;;;;11.40;99.90;;;;;;5055892;28;19913;-72
2023/09/25 02:48:19;;;;;;;;;;;11.50;99.90;;;;;;5053903;28;19909;-73
2023/09/25 02:50:48;;;;;;;;;;;11.40;99.90;;;;;;5055454;28;19916;-73
2023/09/25 02:53:15;;;;;;;;;;;11.40;99.90;;;;;;5055604;28;19916;-72
2023/09/25 02:55:41;;;;;;;;;;;11.40;99.90;;;;;;5055444;28;19909;-72
2023/09/25 02:58:06;;;;;;;;;;;11.40;99.90;;;;;;5055403;28;19913;-73
2023/09/25 03:00:32;;;;;;;;;;;11.40;99.90;;;;;;5055640;28;19908;-73
2023/09/25 03:02:58;;;;;;;;;;;11.40;99.90;;;;;;5087639;28;19951;-72
2023/09/25 03:05:24;;;;;;;;;;;11.40;99.90;;;;;;5054337;28;19959;-73
2023/09/25 03:07:49;;;;;;;;;;;11.30;99.90;;;;;;5055568;28;19919;-72
2023/09/25 03:10:15;;;;;;;;;;;11.30;99.90;;;;;;5055480;28;20282;-73
2023/09/25 03:12:40;;;;;;;;;;;11.30;99.90;;;;;;5054068;28;19909;-72
2023/09/25 03:15:06;;;;;;;;;;;11.30;99.90;;;;;;5055318;28;19913;-73
2023/09/25 03:17:32;;;;;;;;;;;11.20;99.90;;;;;;5055264;28;19909;-72
2023/09/25 03:19:58;;;;;;;;;;;11.20;99.90;;;;;;5087582;28;19909;-72
2023/09/25 03:22:23;;;;;;;;;;;11.20;99.90;;;;;;5055363;28;19909;-72
2023/09/25 03:24:49;;;;;;;;;;;11.20;99.90;;;;;;5054001;28;19912;-72
2023/09/25 03:27:16;;;;;;;;;;;11.20;99.90;;;;;;5055067;28;19925;-72
2023/09/25 03:29:41;;;;;;;;;;;11.10;99.90;;;;;;5055220;28;19931;-72
2023/09/25 03:32:07;;;;;;;;;;;11.10;99.90;;;;;;5055006;28;19913;-72
2023/09/25 03:34:32;;;;;;;;;;;11.10;99.90;;;;;;5055100;28;19913;-72
2023/09/25 03:36:58;;;;;;;;;;;11.10;99.90;;;;;;5054816;28;19940;-73
2023/09/25 03:39:23;;;;;;;;;;;11.10;99.90;;;;;;5055293;28;19999;-73
2023/09/25 03:41:49;;;;;;;;;;;11.00;99.90;;;;;;5055136;28;20003;-72
2023/09/25 03:44:14;;;;;;;;;;;11.00;99.90;;;;;;5070402;28;20009;-73
2023/09/25 03:46:40;;;;;;;;;;;11.00;99.90;;;;;;5055147;28;19913;-72
2023/09/25 03:49:06;;;;;;;;;;;10.90;99.90;;;;;;5055283;28;19960;-72
2023/09/25 03:51:32;;;;;;;;;;;10.90;99.90;;;;;;5054746;28;19912;-73
2023/09/25 03:53:58;;;;;;;;;;;10.90;99.90;;;;;;5055125;28;20011;-72
2023/09/25 03:56:23;;;;;;;;;;;10.80;99.90;;;;;;5054642;28;19944;-73
2023/09/25 03:58:49;;;;;;;;;;;10.80;99.90;;;;;;5055068;28;19928;-72
2023/09/25 04:01:14;;;;;;;;;;;10.80;99.90;;;;;;5090779;28;19923;-72
2023/09/25 04:03:40;;;;;;;;;;;10.80;99.90;;;;;;5058600;28;19931;-72
2023/09/25 04:06:05;;;;;;;;;;;10.70;99.90;;;;;;5058609;28;19952;-72
2023/09/25 04:08:31;;;;;;;;;;;10.70;99.90;;;;;;5058487;28;19940;-72
2023/09/25 04:10:57;;;;;;;;;;;10.70;99.90;;;;;;5090741;28;20349;-72
2023/09/25 04:13:22;;;;;;;;;;;10.60;99.90;;;;;;5058431;28;20440;-72
2023/09/25 04:15:50;;;;;;;;;;;10.60;99.90;;;;;;5058150;28;20399;-72
2023/09/25 04:18:18;;;;;;;;;;;10.60;99.90;;;;;;5058355;28;19916;-72
2023/09/25 04:20:44;;;;;;;;;;;10.50;99.90;;;;;;5057492;28;19928;-72
2023/09/25 04:23:09;;;;;;;;;;;10.50;99.90;;;;;;5058220;28;19909;-72
2023/09/25 04:25:35;;;;;;;;;;;10.50;99.90;;;;;;5073595;28;19909;-72
2023/09/25 04:28:00;;;;;;;;;;;10.40;99.90;;;;;;5057829;28;20335;-72
2023/09/25 04:30:27;;;;;;;;;;;10.40;99.90;;;;;;5058051;28;20063;-72
2023/09/25 04:32:56;;;;;;;;;;;10.40;99.90;;;;;;5056623;28;19931;-72
2023/09/25 04:35:23;;;;;;;;;;;10.40;99.90;;;;;;5057923;28;19951;-72
2023/09/25 04:37:48;;;;;;;;;;;10.30;99.90;;;;;;5057984;28;19959;-72
2023/09/25 04:40:22;;;;;;;;;;;10.30;99.90;;;;;;5057995;28;19909;-72
2023/09/25 04:42:49;;;;;;;;;;;10.20;99.90;;;;;;5057986;28;19912;-72
2023/09/25 04:45:18;;;;;;;;;;;10.20;99.90;;;;;;5048796;28;19916;-72
2023/09/25 04:47:44;;;;;;;;;;;10.20;99.90;;;;;;5056411;28;19923;-72
2023/09/25 04:50:10;;;;;;;;;;;10.20;99.90;;;;;;5057766;28;19909;-72
2023/09/25 04:52:36;;;;;;;;;;;10.20;99.90;;;;;;5057608;28;19916;-72
2023/09/25 04:55:05;;;;;;;;;;;10.10;99.90;;;;;;5057723;28;19935;-72
2023/09/25 04:57:31;;;;;;;;;;;10.10;99.90;;;;;;5056333;28;19959;-73
2023/09/25 04:59:56;;;;;;;;;;;10.10;99.90;;;;;;5057455;28;19912;-72
2023/09/25 05:02:22;;;;;;;;;;;10.10;99.90;;;;;;5057529;28;19912;-72
2023/09/25 05:04:47;;;;;;;;;;;10.00;99.90;;;;;;5057406;28;19913;-72
2023/09/25 05:07:13;;;;;;;;;;;10.00;99.90;;;;;;5069610;28;19968;-72
2023/09/25 05:09:38;;;;;;;;;;;10.00;99.90;;;;;;5051068;28;20390;-72
2023/09/25 05:12:04;;;;;;;;;;;9.90;99.90;;;;;;5057315;28;19920;-73
2023/09/25 05:14:30;;;;;;;;;;;9.90;99.90;;;;;;5056986;28;19912;-73
2023/09/25 05:16:55;;;;;;;;;;;9.90;99.90;;;;;;5057041;28;19908;-72
2023/09/25 05:19:22;;;;;;;;;;;9.80;99.90;;;;;;5057291;28;20288;-72
2023/09/25 05:21:47;;;;;;;;;;;9.80;99.90;;;;;;5057171;28;19966;-72
2023/09/25 05:24:13;;;;;;;;;;;9.80;99.90;;;;;;5056952;28;19920;-73
2023/09/25 05:26:38;;;;;;;;;;;9.80;99.90;;;;;;5056837;28;19947;-72
2023/09/25 05:29:04;;;;;;;;;;;9.80;99.90;;;;;;5056780;28;19924;-72
2023/09/25 05:31:29;;;;;;;;;;;9.70;99.90;;;;;;5089084;28;19909;-72
2023/09/25 05:33:55;;;;;;;;;;;9.70;99.90;;;;;;5056937;28;19913;-72
2023/09/25 05:36:20;;;;;;;;;;;9.70;99.90;;;;;;5056339;28;19934;-72
2023/09/25 05:38:46;;;;;;;;;;;9.80;99.90;;;;;;5056318;28;19913;-73
2023/09/25 05:41:12;;;;;;;;;;;9.80;99.90;;;;;;5056788;28;19909;-72
2023/09/25 05:43:38;;;;;;;;;;;9.80;99.90;;;;;;5056664;28;19909;-72
2023/09/25 05:46:04;;;;;;;;;;;9.80;99.90;;;;;;5056537;28;19912;-72
2023/09/25 05:48:29;;;;;;;;;;;9.80;99.90;;;;;;5055536;28;20012;-72
2023/09/25 05:50:55;;;;;;;;;;;9.80;99.90;;;;;;5055298;28;19909;-73
2023/09/25 05:53:21;;;;;;;;;;;9.70;99.90;;;;;;5055537;28;19912;-72
2023/09/25 05:55:47;;;;;;;;;;;9.80;99.90;;;;;;5056698;28;19909;-72
2023/09/25 05:58:13;;;;;;;;;;;9.80;99.90;;;;;;5088551;28;19923;-72
2023/09/25 06:00:44;;;;;;;;;;;9.70;99.90;;;;;;5068640;28;19996;-72
2023/09/25 06:03:10;;;;;;;;;;;9.80;99.90;;;;;;5047637;28;20479;-72
2023/09/25 06:05:36;;;;;;;;;;;9.80;99.90;;;;;;5056467;28;19931;-72
2023/09/25 06:08:01;;;;;;;;;;;9.80;99.90;;;;;;5063156;28;19909;-72
2023/09/25 06:10:27;;;;;;;;;;;9.80;99.90;;;;;;5068397;28;19919;-72
2023/09/25 06:12:52;;;;;;;;;;;9.90;99.90;;;;;;5052492;28;19912;-72
2023/09/25 06:15:18;;;;;;;;;;;9.90;99.90;;;;;;5056350;28;19923;-72
2023/09/25 06:17:45;;;;;;;;;;;9.90;99.90;;;;;;5056330;28;19917;-72
2023/09/25 06:20:15;;;;;;;;;;;9.90;99.90;;;;;;5056117;28;19912;-72
2023/09/25 06:22:41;;;;;;;;;;;9.90;99.90;;;;;;5055610;28;20027;-72
2023/09/25 06:25:11;;;;;;;;;;;10.00;99.90;;;;;;5056227;28;19931;-72
2023/09/25 06:27:36;;;;;;;;;;;10.00;99.90;;;;;;5056125;28;19948;-72
2023/09/25 06:30:02;;;;;;;;;;;10.10;99.90;;;;;;5055815;28;20288;-72
2023/09/25 06:32:28;;;;;;;;;;;10.10;99.90;;;;;;5071749;28;19916;-72
2023/09/25 06:34:53;;;;;;;;;;;10.20;99.90;;;;;;5071185;28;19956;-73
2023/09/25 06:37:19;;;;;;;;;;;10.30;99.90;;;;;;5056185;28;20003;-73
2023/09/25 06:39:44;;;;;;;;;;;10.40;99.90;;;;;;5056118;28;19939;-73
2023/09/25 06:42:10;;;;;;;;;;;10.40;99.90;;;;;;5071703;28;19920;-72
2023/09/25 06:44:35;;;;;;;;;;;10.50;99.90;;;;;;5055698;28;19942;-72
2023/09/25 06:47:01;;;;;;;;;;;10.60;99.90;;;;;;5071595;28;19919;-72
2023/09/25 06:49:26;;;;;;;;;;;10.70;99.90;;;;;;5055929;28;19917;-72
2023/09/25 06:51:52;;;;;;;;;;;10.70;99.90;;;;;;5056020;28;20292;-72
2023/09/25 06:54:17;;;;;;;;;;;10.90;99.90;;;;;;5071258;28;19912;-73
2023/09/25 06:56:43;;;;;;;;;;;11.00;99.90;;;;;;5056224;28;19908;-73
2023/09/25 06:59:09;;;;;;;;;;;11.10;99.90;;;;;;5054445;28;19995;-73
2023/09/25 07:01:35;;;;;;;;;;;11.20;99.90;;;;;;5071440;28;20292;-72
2023/09/25 07:04:00;;;;;;;;;;;11.30;99.90;;;;;;5055929;28;19909;-72
2023/09/25 07:06:26;;;;;;;;;;;11.50;99.90;;;;;;5054529;28;19916;-73
2023/09/25 07:08:51;;;;;;;;;;;11.60;99.90;;;;;;5070064;28;19913;-72
2023/09/25 07:11:18;;;;;;;;;;;11.80;99.90;;;;;;5055889;28;19917;-72
2023/09/25 07:13:43;;;;;;;;;;;12.00;99.90;;;;;;5055604;28;20012;-73
2023/09/25 07:16:10;;;;;;;;;;;12.10;99.90;;;;;;5055607;28;19952;-73
2023/09/25 07:18:36;;;;;;;;;;;12.30;99.90;;;;;;5087730;28;20373;-72
2023/09/25 07:21:02;;;;;;;;;;;12.50;99.90;;;;;;5055777;28;20385;-72
2023/09/25 07:23:28;;;;;;;;;;;12.70;99.90;;;;;;5054078;28;19914;-72
2023/09/25 07:26:00;;;;;;;;;;;12.80;99.90;;;;;;5055679;28;19940;-72
2023/09/25 07:28:26;;;;;;;;;;;12.90;99.90;;;;;;5055337;28;20334;-72
2023/09/25 07:30:51;;;;;;;;;;;13.10;99.90;;;;;;5054335;28;19972;-73
2023/09/25 07:33:17;;;;;;;;;;;13.20;99.90;;;;;;5056242;28;20471;-72
2023/09/25 07:35:42;;;;;;;;;;;13.30;99.90;;;;;;5059435;28;20455;-73
2023/09/25 07:38:08;;;;;;;;;;;13.50;99.90;;;;;;5091030;28;20464;-72
2023/09/25 07:40:34;;;;;;;;;;;13.60;99.90;;;;;;5059327;28;19909;-72
2023/09/25 07:42:59;;;;;;;;;;;13.70;99.90;;;;;;5058619;28;19909;-72
2023/09/25 07:45:25;;;;;;;;;;;13.90;99.90;;;;;;5059191;28;19996;-72
2023/09/25 07:47:52;;;;;;;;;;;14.00;99.90;;;;;;5059011;28;19916;-72
2023/09/25 07:50:19;;;;;;;;;;;14.20;99.90;;;;;;5074288;28;20046;-72
2023/09/25 07:52:45;;;;;;;;;;;14.30;99.90;;;;;;5074277;28;19916;-73
2023/09/25 07:55:11;;;;;;;;;;;14.40;99.90;;;;;;5074315;28;19913;-72
2023/09/25 07:57:39;;;;;;;;;;;14.60;99.90;;;;;;5057417;28;19908;-72
2023/09/25 08:02:51;;;;;;;;;;;14.80;99.90;;;;;;5057794;28;20052;-72
2023/09/25 08:05:21;;;;;;;;;;;14.90;99.90;;;;;;5057285;28;20008;-72
2023/09/25 08:07:51;;;;;;;;;;;15.00;99.90;;;;;;5047129;28;19919;-73
2023/09/25 08:10:17;;;;;;;;;;;15.00;99.90;;;;;;5058359;28;19909;-73
2023/09/25 08:12:43;;;;;;;;;;;15.10;99.90;;;;;;5058560;28;19909;-73
2023/09/25 08:15:10;;;;;;;;;;;15.30;99.90;;;;;;5071409;28;20452;-72
2023/09/25 08:17:36;;;;;;;;;;;15.40;99.90;;;;;;5058457;28;19909;-72
2023/09/25 08:20:13;;;;;;;;;;;15.60;99.90;;;;;;5058095;28;19909;-73
2023/09/25 08:22:39;;;;;;;;;;;15.60;99.90;;;;;;5058455;28;19908;-73
2023/09/25 08:25:04;;;;;;;;;;;15.70;99.90;;;;;;5058138;28;19923;-73
2023/09/25 08:27:30;;;;;;;;;;;15.90;99.90;;;;;;5058126;28;19920;-72
2023/09/25 08:29:55;;;;;;;;;;;16.10;99.90;;;;;;5057721;28;19917;-73
2023/09/25 08:32:21;;;;;;;;;;;16.10;99.90;;;;;;5058040;28;19994;-72
2023/09/25 08:34:47;;;;;;;;;;;16.20;99.90;;;;;;5057872;28;19923;-72
2023/09/25 08:37:12;;;;;;;;;;;16.30;99.90;;;;;;5058088;28;20030;-72
2023/09/25 08:39:38;;;;;;;;;;;16.50;99.90;;;;;;5072549;28;19909;-73
2023/09/25 08:42:04;;;;;;;;;;;16.50;99.90;;;;;;5058060;28;19909;-72
2023/09/25 08:44:29;;;;;;;;;;;16.60;99.90;;;;;;5055719;28;19908;-73
2023/09/25 08:46:55;;;;;;;;;;;16.70;99.90;;;;;;5057376;28;19928;-73
2023/09/25 08:49:20;;;;;;;;;;;16.90;99.90;;;;;;5057472;28;19962;-73
2023/09/25 08:51:46;;;;;;;;;;;17.00;99.90;;;;;;5057764;28;19913;-72
2023/09/25 08:54:12;;;;;;;;;;;17.10;99.90;;;;;;5057457;28;19912;-73
2023/09/25 08:56:38;;;;;;;;;;;17.30;99.90;;;;;;5057939;28;19984;-72
2023/09/25 08:59:05;;;;;;;;;;;17.50;99.90;;;;;;5057369;28;19960;-73
2023/09/25 09:01:31;;;;;;;;;;;17.60;99.90;;;;;;5057658;28;20292;-72
2023/09/25 09:03:57;;;;;;;;;;;17.70;99.90;;;;;;5057372;28;19920;-73
2023/09/25 09:06:22;;;;;;;;;;;17.90;99.90;;;;;;5057489;28;19909;-73
2023/09/25 09:08:50;;;;;;;;;;;18.00;99.90;;;;;;5057422;28;19909;-73
2023/09/25 09:11:16;;;;;;;;;;;18.10;99.90;;;;;;5057383;28;19920;-72
2023/09/25 09:13:46;;;;;;;;;;;18.30;99.90;;;;;;5056945;28;19913;-72
2023/09/25 09:16:13;;;;;;;;;;;18.30;99.90;;;;;;5057208;28;19913;-73
2023/09/25 09:18:38;;;;;;;;;;;18.40;99.90;;;;;;5057167;28;19913;-72
2023/09/25 09:21:04;;;;;;;;;;;18.50;99.90;;;;;;5072627;28;19935;-72
2023/09/25 09:23:42;;;;;;;;;;;18.70;99.90;;;;;;5055881;28;19987;-72
2023/09/25 09:26:10;;;;;;;;;;;18.70;99.90;;;;;;5057002;28;19913;-73
2023/09/25 09:28:36;;;;;;;;;;;18.80;99.90;;;;;;5054814;28;19920;-73
2023/09/25 09:31:05;;;;;;;;;;;19.00;99.90;;;;;;5057079;28;19920;-72
2023/09/25 09:33:31;;;;;;;;;;;19.10;99.90;;;;;;5072144;28;20372;-72
2023/09/25 09:35:56;;;;;;;;;;;19.10;99.90;;;;;;5056838;28;19966;-73
2023/09/25 09:38:22;;;;;;;;;;;19.20;99.90;;;;;;5056788;28;20368;-73
2023/09/25 09:40:49;;;;;;;;;;;19.40;99.90;;;;;;5072264;28;20372;-73
2023/09/25 09:43:15;;;;;;;;;;;19.50;99.90;;;;;;5056375;28;19916;-73
2023/09/25 09:45:41;;;;;;;;;;;19.60;99.90;;;;;;5056753;28;19954;-72
2023/09/25 09:48:09;;;;;;;;;;;19.70;99.90;;;;;;5056731;28;19939;-73
2023/09/25 09:50:35;;;;;;;;;;;19.80;99.90;;;;;;5056448;28;20288;-72
2023/09/25 09:53:03;;;;;;;;;;;19.80;99.90;;;;;;5056617;28;20364;-72
2023/09/25 09:55:30;;;;;;;;;;;19.90;99.90;;;;;;5056644;28;20384;-72
2023/09/25 09:57:56;;;;;;;;;;;20.00;99.90;;;;;;5044659;28;19962;-72
2023/09/25 10:00:23;;;;;;;;;;;20.00;99.90;;;;;;5056042;28;20306;-74
2023/09/25 10:02:49;;;;;;;;;;;20.00;99.90;;;;;;5072104;28;19999;-72
2023/09/25 10:05:15;;;;;;;;;;;20.20;99.90;;;;;;5071583;28;19949;-73
2023/09/25 10:07:59;;;;;;;;;;;20.20;99.90;;;;;;5088580;28;20046;-73
2023/09/25 10:10:25;;;;;;;;;;;20.30;99.90;;;;;;5070379;28;19940;-73
2023/09/25 10:12:52;;;;;;;;;;;20.40;99.90;;;;;;5056419;28;20400;-73
2023/09/25 10:15:20;;;;;;;;;;;20.50;99.90;;;;;;5056093;28;19924;-73
2023/09/25 10:17:48;;;;;;;;;;;20.60;99.90;;;;;;5056090;28;19991;-73
2023/09/25 10:20:36;;;;;;;;;;;20.60;99.90;;;;;;5055868;28;20405;-73
2023/09/25 10:23:08;;;;;;;;;;;20.70;99.90;;;;;;5056231;28;19930;-72
2023/09/25 10:25:52;;;;;;;;;;;20.80;99.90;;;;;;5045094;28;19920;-73
2023/09/25 10:28:27;;;;;;;;;;;20.80;99.90;;;;;;5055305;28;19929;-73
2023/09/25 10:30:57;;;;;;;;;;;20.80;99.90;;;;;;5056175;28;20679;-73
2023/09/25 10:33:22;;;;;;;;;;;20.90;99.90;;;;;;5054441;28;19912;-74
2023/09/25 10:35:49;;;;;;;;;;;20.90;99.90;;;;;;5071279;28;19923;-73
2023/09/25 10:38:19;;;;;;;;;;;21.00;99.90;;;;;;5055754;28;19913;-73
2023/09/25 10:40:45;;;;;;;;;;;21.20;99.90;;;;;;5055939;28;19975;-73
2023/09/25 10:43:11;;;;;;;;;;;21.20;99.90;;;;;;5055432;28;19916;-73
2023/09/25 10:45:37;;;;;;;;;;;21.20;99.90;;;;;;5071272;28;20388;-73
2023/09/25 10:48:04;;;;;;;;;;;21.30;99.90;;;;;;5055651;28;19913;-73
2023/09/25 10:50:29;;;;;;;;;;;21.30;99.90;;;;;;5054316;28;19912;-73
2023/09/25 10:52:55;;;;;;;;;;;21.40;99.90;;;;;;5055596;28;20407;-73
2023/09/25 10:55:21;;;;;;;;;;;21.50;99.90;;;;;;5071229;28;19909;-73
2023/09/25 10:57:47;;;;;;;;;;;21.60;99.90;;;;;;5055525;28;19920;-73
2023/09/25 11:00:15;;;;;;;;;;;21.60;99.90;;;;;;5055642;28;20397;-73
2023/09/25 11:02:43;;;;;;;;;;;21.70;99.90;;;;;;5055569;28;19932;-73
2023/09/25 11:05:10;;;;;;;;;;;21.80;99.90;;;;;;5055505;28;19920;-73
2023/09/25 11:07:36;;;;;;;;;;;21.80;99.90;;;;;;5055618;28;20289;-73
2023/09/25 11:10:02;;;;;;;;;;;22.00;99.90;;;;;;5059585;28;20011;-73
2023/09/25 11:12:29;;;;;;;;;;;22.20;99.90;;;;;;5058208;28;19939;-73
2023/09/25 11:14:54;;;;;;;;;;;22.30;99.90;;;;;;5059396;28;19924;-73
2023/09/25 11:17:20;;;;;;;;;;;22.40;99.90;;;;;;5059409;28;19920;-73
2023/09/25 11:19:45;;;;;;;;;;;22.40;99.90;;;;;;5059399;28;19909;-73
2023/09/25 11:22:11;;;;;;;;;;;22.50;99.90;;;;;;5059508;28;19932;-73
2023/09/25 11:24:37;;;;;;;;;;;22.60;99.90;;;;;;5059590;28;19919;-74
2023/09/25 11:27:08;;;;;;;;;;;22.60;99.90;;;;;;5059126;28;20278;-73
2023/09/25 11:29:35;;;;;;;;;;;22.60;99.90;;;;;;5059016;28;20407;-73
2023/09/25 11:32:02;;;;;;;;;;;22.60;99.90;;;;;;5057818;28;19912;-73
2023/09/25 11:34:28;;;;;;;;;;;22.70;99.90;;;;;;5057741;28;19924;-73
2023/09/25 11:36:54;;;;;;;;;;;22.80;99.90;;;;;;5059266;28;19912;-73
2023/09/25 11:39:19;;;;;;;;;;;22.90;99.90;;;;;;5074207;28;20458;-73
2023/09/25 11:41:45;;;;;;;;;;;22.90;99.90;;;;;;5059234;28;19964;-73
2023/09/25 11:44:11;;;;;;;;;;;23.00;99.90;;;;;;5058547;28;19984;-72
2023/09/25 11:46:37;;;;;;;;;;;23.00;99.90;;;;;;5057771;28;19913;-73
2023/09/25 11:49:03;;;;;;;;;;;23.00;99.90;;;;;;5058821;28;20290;-73
2023/09/25 11:51:28;;;;;;;;;;;23.00;99.90;;;;;;5058832;28;19908;-73
2023/09/25 11:53:54;;;;;;;;;;;23.00;99.90;;;;;;5058623;28;19920;-74
2023/09/25 11:56:21;;;;;;;;;;;23.10;99.90;;;;;;5058898;28;19908;-73
2023/09/25 11:58:46;;;;;;;;;;;23.10;99.90;;;;;;5057119;28;19912;-73
2023/09/25 12:01:12;;;;;;;;;;;23.20;99.90;;;;;;5057500;28;20300;-73
2023/09/25 12:03:40;;;;;;;;;;;23.30;99.90;;;;;;5058674;28;19917;-73
2023/09/25 12:06:06;;;;;;;;;;;23.50;99.90;;;;;;5058538;28;19913;-73
2023/09/25 12:08:32;;;;;;;;;;;23.60;99.90;;;;;;5058467;28;19943;-73
2023/09/25 12:10:58;;;;;;;;;;;23.70;99.90;;;;;;5058385;28;19913;-73
2023/09/25 12:13:24;;;;;;;;;;;23.80;99.90;;;;;;5073682;28;19913;-73
2023/09/25 12:15:50;;;;;;;;;;;23.80;99.90;;;;;;5058312;28;19909;-73
2023/09/25 12:18:16;;;;;;;;;;;23.90;99.90;;;;;;5058309;28;19962;-73
2023/09/25 12:20:41;;;;;;;;;;;24.00;99.90;;;;;;5057150;28;19920;-74
2023/09/25 12:23:07;;;;;;;;;;;24.00;99.90;;;;;;5058480;28;20330;-74
2023/09/25 12:25:33;;;;;;;;;;;24.10;99.90;;;;;;5058352;28;19909;-73
2023/09/25 12:27:59;;;;;;;;;;;24.10;99.90;;;;;;5057888;28;20476;-73
2023/09/25 12:30:24;;;;;;;;;;;24.20;99.90;;;;;;5090393;28;19952;-73
2023/09/25 12:32:50;;;;;;;;;;;24.20;99.90;;;;;;5057960;28;19909;-73
2023/09/25 12:35:16;;;;;;;;;;;24.30;98.40;;;;;;5058002;28;19913;-73
2023/09/25 12:37:45;;;;;;;;;;;24.40;99.70;;;;;;5058082;28;20380;-73
2023/09/25 12:40:13;;;;;;;;;;;24.40;97.00;;;;;;5056601;28;20440;-74
2023/09/25 12:42:38;;;;;;;;;;;24.50;96.40;;;;;;5073041;28;19913;-73
2023/09/25 12:45:04;;;;;;;;;;;24.60;93.60;;;;;;5057778;28;19919;-74
2023/09/25 12:47:30;;;;;;;;;;;24.70;92.80;;;;;;5057966;28;19917;-74
2023/09/25 12:49:57;;;;;;;;;;;24.70;94.00;;;;;;5057565;28;19955;-74
2023/09/25 12:52:23;;;;;;;;;;;24.80;92.80;;;;;;5057827;28;19983;-74
2023/09/25 12:54:49;;;;;;;;;;;24.90;94.20;;;;;;5057706;28;19987;-74
2023/09/25 12:57:16;;;;;;;;;;;24.90;94.10;;;;;;5057898;28;19940;-74
2023/09/25 12:59:42;;;;;;;;;;;24.90;94.30;;;;;;5057260;28;19992;-73
2023/09/25 13:02:08;;;;;;;;;;;24.80;97.00;;;;;;5056548;28;19909;-73
2023/09/25 13:04:33;;;;;;;;;;;24.90;94.20;;;;;;5057627;28;19919;-74
2023/09/25 13:06:59;;;;;;;;;;;25.00;94.30;;;;;;5057456;28;19976;-73
2023/09/25 13:09:25;;;;;;;;;;;25.10;92.90;;;;;;5089499;28;20433;-73
2023/09/25 13:11:50;;;;;;;;;;;25.30;92.60;;;;;;5057428;28;19909;-73
2023/09/25 13:14:16;;;;;;;;;;;25.30;91.80;;;;;;5056919;28;19913;-74
2023/09/25 13:16:43;;;;;;;;;;;25.40;92.10;;;;;;5057094;28;19915;-74
2023/09/25 13:19:09;;;;;;;;;;;25.60;90.50;;;;;;5057227;28;20292;-73
2023/09/25 13:21:35;;;;;;;;;;;25.60;90.20;;;;;;5055666;28;19913;-74
2023/09/25 13:24:00;;;;;;;;;;;25.60;91.70;;;;;;5055845;28;19931;-74
2023/09/25 13:26:26;;;;;;;;;;;25.60;90.50;;;;;;5056933;28;20343;-74
2023/09/25 13:28:53;;;;;;;;;;;25.70;90.70;;;;;;5056824;28;19935;-74
2023/09/25 13:31:18;;;;;;;;;;;25.80;89.90;;;;;;5056753;28;19966;-74
2023/09/25 13:33:44;;;;;;;;;;;25.80;89.50;;;;;;5056812;28;19916;-73
2023/09/25 13:36:10;;;;;;;;;;;25.80;91.80;;;;;;5055480;28;19913;-74
2023/09/25 13:38:37;;;;;;;;;;;25.80;88.50;;;;;;5056062;28;21629;-74
2023/09/25 13:41:04;;;;;;;;;;;25.80;89.30;;;;;;5072268;28;19913;-74
2023/09/25 13:43:30;;;;;;;;;;;25.90;90.20;;;;;;5056438;28;19909;-73
2023/09/25 13:45:55;;;;;;;;;;;25.90;90.20;;;;;;5072117;28;20007;-73
2023/09/25 13:48:21;;;;;;;;;;;26.00;90.30;;;;;;5056724;28;19908;-73
2023/09/25 13:50:47;;;;;;;;;;;26.10;89.10;;;;;;5056596;28;19948;-74
2023/09/25 13:53:12;;;;;;;;;;;26.20;87.50;;;;;;5055080;28;20047;-73
2023/09/25 13:55:38;;;;;;;;;;;26.30;87.30;;;;;;5056627;28;20026;-73
2023/09/25 13:58:03;;;;;;;;;;;26.40;90.30;;;;;;5056473;28;20023;-73
2023/09/25 14:00:30;;;;;;;;;;;26.40;86.70;;;;;;5056498;28;20450;-73
2023/09/25 14:02:55;;;;;;;;;;;26.40;86.90;;;;;;5056351;28;19912;-73
2023/09/25 14:05:22;;;;;;;;;;;26.40;84.70;;;;;;5055087;28;19916;-74
2023/09/25 14:07:48;;;;;;;;;;;26.40;90.20;;;;;;5056137;28;19913;-73
2023/09/25 14:10:13;;;;;;;;;;;26.40;90.60;;;;;;5054973;28;20003;-74
2023/09/25 14:12:46;;;;;;;;;;;26.30;87.90;;;;;;5054669;28;19966;-73
2023/09/25 14:15:13;;;;;;;;;;;26.10;90.10;;;;;;5054787;28;20448;-74